Time;durP1;ratioP1;P1;durP2;ratioP2;P2;SDS_P1;SDS_P2;PMS_P1;PMS_P2;Temp;Humidity;BMP_temperature;BMP_pressure;BME280_temperature;BME280_humidity;BME280_pressure;Samples;Min_cycle;Max_cycle;Signal;HPM_P1;HPM_P2
2023/09/20 00:00:51;;;;;;;14.73;3.35;;;;;;;;;;5013960;28;20030;-75
2023/09/20 00:03:19;;;;;;;7.78;2.65;;;;;;;;;;5014197;28;20068;-75
2023/09/20 00:05:47;;;;;;;12.73;3.33;;;;;;;;;;5014132;28;20526;-75
2023/09/20 00:08:13;;;;;;;13.77;3.05;;;;;;;;;;5014030;28;20017;-75
2023/09/20 00:10:40;;;;;;;15.57;3.33;;;;;;;;;;5013922;28;20080;-75
2023/09/20 00:13:07;;;;;;;13.80;3.70;;;;;;;;;;5014109;28;20109;-75
2023/09/20 00:15:33;;;;;;;13.13;2.88;;;;;;;;;;5013964;28;20034;-75
2023/09/20 00:17:59;;;;;;;14.85;3.17;;;;;;;;;;5013565;28;20080;-75
2023/09/20 00:20:25;;;;;;;14.52;2.90;;;;;;;;;;5013314;28;20045;-75
2023/09/20 00:22:51;;;;;;;12.25;2.30;;;;;;;;;;5013521;28;20032;-75
2023/09/20 00:25:18;;;;;;;10.52;2.40;;;;;;;;;;5013877;28;20030;-75
2023/09/20 00:27:47;;;;;;;17.17;3.20;;;;;;;;;;5013817;28;20030;-75
2023/09/20 00:30:18;;;;;;;12.27;2.42;;;;;;;;;;5013521;28;20022;-75
2023/09/20 00:32:44;;;;;;;12.93;3.47;;;;;;;;;;5013615;28;20097;-75
2023/09/20 00:35:11;;;;;;;13.23;2.70;;;;;;;;;;5013149;28;20030;-75
2023/09/20 00:37:40;;;;;;;16.02;2.72;;;;;;;;;;5013305;28;20048;-75
2023/09/20 00:40:17;;;;;;;17.13;3.28;;;;;;;;;;5013738;28;20105;-75
2023/09/20 00:42:45;;;;;;;14.85;3.30;;;;;;;;;;5013484;28;20029;-75
2023/09/20 00:45:13;;;;;;;16.95;3.10;;;;;;;;;;5013451;28;20029;-75
2023/09/20 00:47:40;;;;;;;12.57;2.72;;;;;;;;;;5013402;28;20072;-75
2023/09/20 00:50:08;;;;;;;11.25;2.72;;;;;;;;;;5013299;28;20470;-75
2023/09/20 00:52:34;;;;;;;11.80;2.78;;;;;;;;;;5013159;28;20022;-75
2023/09/20 00:55:00;;;;;;;11.70;3.42;;;;;;;;;;5013035;28;20030;-75
2023/09/20 00:57:27;;;;;;;10.63;3.65;;;;;;;;;;5013272;28;20029;-75
2023/09/20 00:59:55;;;;;;;15.57;3.45;;;;;;;;;;5013247;28;20128;-75
2023/09/20 01:02:23;;;;;;;16.70;3.65;;;;;;;;;;5013059;28;20024;-75
2023/09/20 01:04:50;;;;;;;12.80;2.90;;;;;;;;;;5013351;28;20026;-75
2023/09/20 01:07:16;;;;;;;12.93;3.40;;;;;;;;;;5012924;28;20515;-75
2023/09/20 01:09:42;;;;;;;14.52;3.85;;;;;;;;;;5012961;28;20105;-75
2023/09/20 01:12:08;;;;;;;12.32;3.92;;;;;;;;;;5013159;28;20460;-75
2023/09/20 01:14:35;;;;;;;11.68;3.45;;;;;;;;;;5013148;28;20480;-75
2023/09/20 01:17:05;;;;;;;12.25;3.47;;;;;;;;;;5013122;28;20038;-75
2023/09/20 01:19:32;;;;;;;11.43;3.38;;;;;;;;;;5012448;28;20050;-75
2023/09/20 01:21:58;;;;;;;15.38;3.53;;;;;;;;;;5013071;28;20025;-75
2023/09/20 01:24:27;;;;;;;10.35;3.45;;;;;;;;;;5012792;28;20380;-75
2023/09/20 01:26:56;;;;;;;12.98;3.70;;;;;;;;;;5013136;28;20404;-75
2023/09/20 01:29:22;;;;;;;11.65;3.78;;;;;;;;;;5013166;28;20030;-75
2023/09/20 01:31:48;;;;;;;18.15;4.43;;;;;;;;;;4995143;28;20041;-75
2023/09/20 01:34:14;;;;;;;10.45;3.50;;;;;;;;;;5012975;28;20025;-75
2023/09/20 01:36:40;;;;;;;15.65;3.83;;;;;;;;;;5012637;28;20073;-75
2023/09/20 01:39:12;;;;;;;19.50;4.03;;;;;;;;;;5013056;28;20084;-75
2023/09/20 01:41:38;;;;;;;11.40;3.92;;;;;;;;;;5013016;28;20022;-75
2023/09/20 01:44:04;;;;;;;11.75;3.53;;;;;;;;;;5012776;28;20037;-75
2023/09/20 01:46:33;;;;;;;19.95;3.78;;;;;;;;;;5012637;28;20477;-75
2023/09/20 01:48:59;;;;;;;19.10;3.85;;;;;;;;;;5012929;28;20018;-75
2023/09/20 01:51:25;;;;;;;12.10;3.42;;;;;;;;;;5012663;28;20112;-75
2023/09/20 01:53:51;;;;;;;16.65;3.05;;;;;;;;;;5012546;28;20097;-75
2023/09/20 01:56:17;;;;;;;8.23;2.33;;;;;;;;;;5012533;28;20041;-75
2023/09/20 01:58:44;;;;;;;19.65;2.75;;;;;;;;;;5012826;28;20029;-75
2023/09/20 02:01:10;;;;;;;14.13;2.28;;;;;;;;;;5012822;28;20029;-75
2023/09/20 02:03:39;;;;;;;16.42;2.65;;;;;;;;;;5012496;28;20026;-75
2023/09/20 02:06:06;;;;;;;14.30;2.17;;;;;;;;;;5012795;28;20037;-75
2023/09/20 02:08:34;;;;;;;10.93;1.88;;;;;;;;;;5012693;28;20022;-75
2023/09/20 02:11:00;;;;;;;12.07;2.00;;;;;;;;;;5016201;28;20109;-75
2023/09/20 02:13:26;;;;;;;16.27;2.15;;;;;;;;;;5015987;28;20101;-75
2023/09/20 02:15:52;;;;;;;15.65;2.60;;;;;;;;;;5015936;28;20049;-75
2023/09/20 02:18:18;;;;;;;9.23;1.50;;;;;;;;;;5016176;28;20113;-76
2023/09/20 02:20:44;;;;;;;11.52;2.05;;;;;;;;;;5015681;28;20117;-75
2023/09/20 02:23:15;;;;;;;13.38;2.13;;;;;;;;;;5015809;28;20105;-75
2023/09/20 02:25:41;;;;;;;10.32;1.80;;;;;;;;;;5016177;28;20552;-76
2023/09/20 02:28:07;;;;;;;13.25;2.35;;;;;;;;;;5016121;28;20021;-76
2023/09/20 02:30:36;;;;;;;11.80;1.73;;;;;;;;;;5015942;28;20452;-75
2023/09/20 02:33:05;;;;;;;10.18;1.88;;;;;;;;;;5015914;28;20021;-75
2023/09/20 02:35:32;;;;;;;11.35;1.65;;;;;;;;;;5015801;28;20541;-75
2023/09/20 02:37:59;;;;;;;12.80;1.95;;;;;;;;;;5015575;28;20022;-75
2023/09/20 02:40:26;;;;;;;11.38;1.80;;;;;;;;;;5015880;28;20018;-75
2023/09/20 02:42:59;;;;;;;7.93;2.47;;;;;;;;;;5015703;28;20399;-75
2023/09/20 02:45:27;;;;;;;10.30;2.17;;;;;;;;;;5015323;28;20022;-75
2023/09/20 02:47:54;;;;;;;10.02;2.25;;;;;;;;;;5015687;28;20030;-75
2023/09/20 02:50:22;;;;;;;10.82;2.58;;;;;;;;;;5015634;28;20029;-75
2023/09/20 02:52:49;;;;;;;8.82;2.00;;;;;;;;;;5015485;28;20349;-75
2023/09/20 02:55:17;;;;;;;12.00;2.60;;;;;;;;;;5015076;28;20045;-75
2023/09/20 02:57:44;;;;;;;11.07;2.40;;;;;;;;;;5015430;28;20113;-75
2023/09/20 03:00:18;;;;;;;9.48;2.45;;;;;;;;;;5015145;28;20022;-75
2023/09/20 03:02:54;;;;;;;10.70;3.05;;;;;;;;;;5015416;28;20453;-75
2023/09/20 03:05:21;;;;;;;9.95;3.13;;;;;;;;;;5015050;28;20084;-75
2023/09/20 03:07:48;;;;;;;9.35;2.92;;;;;;;;;;5015182;28;20033;-75
2023/09/20 03:10:16;;;;;;;10.60;3.22;;;;;;;;;;5011948;28;20015;-75
2023/09/20 03:12:45;;;;;;;11.57;3.10;;;;;;;;;;4995666;28;20030;-75
2023/09/20 03:15:12;;;;;;;6.20;2.67;;;;;;;;;;4995613;28;20081;-75
2023/09/20 03:17:39;;;;;;;12.13;3.00;;;;;;;;;;4995175;28;20029;-75
2023/09/20 03:20:16;;;;;;;7.75;2.88;;;;;;;;;;4994527;28;20046;-75
2023/09/20 03:22:42;;;;;;;9.30;3.13;;;;;;;;;;4995058;28;20059;-76
2023/09/20 03:25:13;;;;;;;9.05;3.00;;;;;;;;;;4995156;28;20104;-75
2023/09/20 03:27:40;;;;;;;9.20;2.70;;;;;;;;;;4995106;28;20472;-75
2023/09/20 03:30:08;;;;;;;7.15;3.00;;;;;;;;;;4995498;28;20028;-75
2023/09/20 03:32:34;;;;;;;13.80;3.78;;;;;;;;;;4995101;28;20450;-75
2023/09/20 03:35:00;;;;;;;9.80;2.88;;;;;;;;;;4994903;28;20030;-75
2023/09/20 03:37:27;;;;;;;7.88;2.95;;;;;;;;;;4995028;28;20037;-75
2023/09/20 03:39:53;;;;;;;10.32;3.10;;;;;;;;;;4995089;28;20344;-75
2023/09/20 03:42:19;;;;;;;10.30;2.92;;;;;;;;;;4994765;28;20109;-75
2023/09/20 03:44:45;;;;;;;9.07;3.50;;;;;;;;;;4994681;28;20054;-75
2023/09/20 03:47:12;;;;;;;11.65;4.20;;;;;;;;;;4994605;28;20049;-75
2023/09/20 03:49:38;;;;;;;6.90;3.33;;;;;;;;;;4994606;28;20034;-75
2023/09/20 03:52:06;;;;;;;5.72;3.20;;;;;;;;;;4994867;28;20022;-75
2023/09/20 03:54:32;;;;;;;11.38;3.90;;;;;;;;;;4994651;28;20089;-75
2023/09/20 03:57:00;;;;;;;10.32;4.00;;;;;;;;;;4994417;28;20702;-75
2023/09/20 03:59:26;;;;;;;16.15;4.07;;;;;;;;;;4994533;28;20050;-75
2023/09/20 04:01:55;;;;;;;9.82;3.83;;;;;;;;;;4994635;28;20030;-75
2023/09/20 04:04:21;;;;;;;12.15;3.80;;;;;;;;;;4994435;28;20454;-75
2023/09/20 04:06:47;;;;;;;8.18;3.80;;;;;;;;;;4994469;28;20022;-75
2023/09/20 04:09:13;;;;;;;14.10;4.13;;;;;;;;;;4994449;28;20053;-75
2023/09/20 04:11:40;;;;;;;10.05;3.85;;;;;;;;;;4994195;28;20546;-75
2023/09/20 04:14:10;;;;;;;11.25;4.35;;;;;;;;;;4994410;28;20392;-75
2023/09/20 04:16:41;;;;;;;15.53;4.33;;;;;;;;;;4993967;28;20027;-75
2023/09/20 04:19:08;;;;;;;10.85;3.63;;;;;;;;;;4993859;28;20296;-76
2023/09/20 04:21:34;;;;;;;11.95;4.18;;;;;;;;;;4994259;28;20609;-75
2023/09/20 04:24:00;;;;;;;14.27;3.78;;;;;;;;;;4994229;28;20457;-75
2023/09/20 04:26:26;;;;;;;9.63;4.00;;;;;;;;;;4993817;28;20485;-75
2023/09/20 04:28:52;;;;;;;13.75;4.32;;;;;;;;;;4994009;28;20027;-75
2023/09/20 04:31:19;;;;;;;10.90;4.55;;;;;;;;;;4993610;28;20037;-75
2023/09/20 04:33:46;;;;;;;14.18;4.80;;;;;;;;;;4993672;28;20022;-75
2023/09/20 04:36:12;;;;;;;10.65;3.72;;;;;;;;;;4993791;28;20034;-75
2023/09/20 04:38:38;;;;;;;10.57;4.20;;;;;;;;;;4993813;28;20077;-75
2023/09/20 04:41:05;;;;;;;9.40;4.10;;;;;;;;;;4976232;28;20496;-75
2023/09/20 04:43:32;;;;;;;10.90;3.83;;;;;;;;;;4993578;28;20057;-75
2023/09/20 04:46:02;;;;;;;12.07;4.15;;;;;;;;;;4993726;28;20061;-75
2023/09/20 04:48:28;;;;;;;10.18;4.28;;;;;;;;;;4993733;28;20543;-75
2023/09/20 04:50:55;;;;;;;11.00;3.80;;;;;;;;;;4993496;28;20057;-75
2023/09/20 04:53:23;;;;;;;9.68;3.63;;;;;;;;;;4993616;28;20033;-75
2023/09/20 04:55:49;;;;;;;11.13;4.03;;;;;;;;;;4993483;28;20033;-75
2023/09/20 04:58:17;;;;;;;10.75;4.57;;;;;;;;;;4993513;28;20030;-75
2023/09/20 05:00:43;;;;;;;11.18;4.30;;;;;;;;;;4993579;28;20053;-75
2023/09/20 05:03:11;;;;;;;9.60;4.30;;;;;;;;;;4993543;28;20117;-75
2023/09/20 05:05:37;;;;;;;10.38;4.43;;;;;;;;;;4993807;28;20033;-76
2023/09/20 05:08:05;;;;;;;11.18;3.95;;;;;;;;;;4993091;28;20030;-75
2023/09/20 05:10:32;;;;;;;9.25;3.58;;;;;;;;;;4992964;28;20031;-75
2023/09/20 05:12:58;;;;;;;7.47;3.83;;;;;;;;;;4993320;28;20081;-75
2023/09/20 05:15:24;;;;;;;13.52;4.65;;;;;;;;;;4993014;28;20042;-75
2023/09/20 05:17:51;;;;;;;10.38;3.95;;;;;;;;;;4993349;28;20029;-75
2023/09/20 05:20:17;;;;;;;11.65;4.05;;;;;;;;;;4992690;28;20062;-75
2023/09/20 05:22:43;;;;;;;11.00;4.18;;;;;;;;;;4993024;28;20042;-75
2023/09/20 05:25:09;;;;;;;8.90;3.83;;;;;;;;;;4992804;28;20027;-75
2023/09/20 05:27:35;;;;;;;10.15;3.90;;;;;;;;;;4992930;28;20030;-75
2023/09/20 05:30:01;;;;;;;10.52;3.80;;;;;;;;;;4993042;28;20520;-75
2023/09/20 05:32:27;;;;;;;7.57;3.80;;;;;;;;;;5004420;28;20030;-75
2023/09/20 05:34:53;;;;;;;11.68;4.35;;;;;;;;;;5012321;28;20044;-75
2023/09/20 05:37:19;;;;;;;11.07;4.10;;;;;;;;;;5012537;28;20053;-74
2023/09/20 05:39:48;;;;;;;11.25;4.10;;;;;;;;;;5012309;28;20361;-74
2023/09/20 05:42:17;;;;;;;9.80;4.32;;;;;;;;;;5012600;28;20068;-74
2023/09/20 05:44:43;;;;;;;9.18;4.00;;;;;;;;;;5014311;28;20056;-74
2023/09/20 05:47:09;;;;;;;8.88;3.63;;;;;;;;;;5016249;28;20034;-74
2023/09/20 05:49:35;;;;;;;8.75;4.03;;;;;;;;;;5016093;28;20033;-75
2023/09/20 05:52:05;;;;;;;9.05;3.35;;;;;;;;;;5015979;28;20038;-74
2023/09/20 05:54:31;;;;;;;6.15;3.30;;;;;;;;;;5016320;28;20022;-74
2023/09/20 05:56:59;;;;;;;10.18;3.88;;;;;;;;;;5015733;28;20180;-75
2023/09/20 05:59:26;;;;;;;9.02;3.85;;;;;;;;;;5015408;28;20030;-74
2023/09/20 06:01:52;;;;;;;9.70;4.15;;;;;;;;;;5016135;28;20112;-74
2023/09/20 06:04:21;;;;;;;9.68;3.47;;;;;;;;;;5015164;28;20030;-74
2023/09/20 06:06:47;;;;;;;8.27;3.73;;;;;;;;;;5015783;28;20055;-74
2023/09/20 06:09:14;;;;;;;9.70;3.40;;;;;;;;;;5015715;28;20597;-74
2023/09/20 06:11:40;;;;;;;7.57;3.30;;;;;;;;;;5015990;28;20022;-74
2023/09/20 06:14:06;;;;;;;9.40;3.53;;;;;;;;;;5015638;28;20022;-74
2023/09/20 06:16:32;;;;;;;10.07;3.53;;;;;;;;;;5015816;28;20034;-74
2023/09/20 06:18:58;;;;;;;9.70;3.25;;;;;;;;;;5015134;28;20030;-75
2023/09/20 06:21:24;;;;;;;7.07;3.35;;;;;;;;;;5015564;28;20084;-74
2023/09/20 06:23:50;;;;;;;7.18;3.58;;;;;;;;;;5015653;28;20026;-75
2023/09/20 06:26:18;;;;;;;9.55;3.25;;;;;;;;;;5015646;28;20392;-74
2023/09/20 06:28:44;;;;;;;7.15;3.13;;;;;;;;;;5015715;28;20072;-74
2023/09/20 06:31:15;;;;;;;5.43;2.95;;;;;;;;;;5015451;28;20104;-74
2023/09/20 06:33:43;;;;;;;5.30;2.92;;;;;;;;;;5015560;28;20072;-74
2023/09/20 06:36:09;;;;;;;8.65;3.17;;;;;;;;;;5015175;28;20034;-74
2023/09/20 06:38:35;;;;;;;7.88;2.95;;;;;;;;;;5015140;28;20060;-74
2023/09/20 06:41:02;;;;;;;5.28;2.22;;;;;;;;;;5015356;28;20030;-75
2023/09/20 06:43:28;;;;;;;9.00;2.90;;;;;;;;;;5015443;28;20487;-74
2023/09/20 06:45:56;;;;;;;7.15;2.67;;;;;;;;;;5015204;28;20081;-75
2023/09/20 06:48:22;;;;;;;8.57;2.50;;;;;;;;;;5015193;28;20044;-75
2023/09/20 06:50:55;;;;;;;8.48;3.25;;;;;;;;;;4997311;28;20033;-74
2023/09/20 06:53:23;;;;;;;6.88;2.55;;;;;;;;;;5015039;28;20072;-75
2023/09/20 06:55:49;;;;;;;5.75;2.78;;;;;;;;;;5014918;28;20030;-75
2023/09/20 06:58:16;;;;;;;5.88;2.83;;;;;;;;;;5014821;28;20072;-75
2023/09/20 07:00:42;;;;;;;8.48;2.58;;;;;;;;;;5015064;28;20030;-75
2023/09/20 07:03:08;;;;;;;5.65;2.17;;;;;;;;;;5014727;28;20100;-75
2023/09/20 07:05:34;;;;;;;7.40;2.70;;;;;;;;;;5014635;28;20476;-74
2023/09/20 07:08:00;;;;;;;6.75;2.53;;;;;;;;;;5014620;28;20026;-75
2023/09/20 07:10:28;;;;;;;8.23;2.80;;;;;;;;;;5014811;28;20037;-75
2023/09/20 07:12:54;;;;;;;7.70;2.75;;;;;;;;;;5014822;28;20018;-75
2023/09/20 07:15:24;;;;;;;8.95;3.28;;;;;;;;;;5014386;28;20037;-75
2023/09/20 07:18:32;;;;;;;;;;;;;;;;;;5015463;28;20453;-75
2023/09/20 07:20:43;;;;;;;9.02;2.60;;;;;;;;;;5006052;28;20280;-75
2023/09/20 07:23:12;;;;;;;6.95;2.88;;;;;;;;;;5014304;28;20040;-75
2023/09/20 07:25:38;;;;;;;5.20;3.20;;;;;;;;;;5014613;28;20026;-75
2023/09/20 07:28:06;;;;;;;9.20;3.08;;;;;;;;;;5014351;28;20033;-75
2023/09/20 07:30:34;;;;;;;5.63;2.80;;;;;;;;;;5014519;28;20025;-75
2023/09/20 07:33:02;;;;;;;6.88;2.53;;;;;;;;;;4996418;28;20471;-74
2023/09/20 07:35:36;;;;;;;5.35;2.95;;;;;;;;;;5014289;28;20032;-74
2023/09/20 07:38:03;;;;;;;8.27;2.67;;;;;;;;;;5014371;28;20014;-75
2023/09/20 07:40:30;;;;;;;9.52;2.83;;;;;;;;;;5014082;28;20113;-75
2023/09/20 07:42:59;;;;;;;9.95;3.42;;;;;;;;;;5014002;28;20018;-75
2023/09/20 07:45:31;;;;;;;7.80;2.85;;;;;;;;;;4994472;28;20104;-74
2023/09/20 07:47:57;;;;;;;7.13;2.90;;;;;;;;;;4994460;28;20034;-75
2023/09/20 07:50:25;;;;;;;7.97;3.17;;;;;;;;;;4994562;28;20058;-75
2023/09/20 07:52:51;;;;;;;7.68;3.38;;;;;;;;;;4994807;28;20026;-74
2023/09/20 07:55:17;;;;;;;6.63;3.13;;;;;;;;;;4976689;28;20061;-74
2023/09/20 07:57:43;;;;;;;6.55;3.00;;;;;;;;;;4994454;28;20026;-75
2023/09/20 08:00:10;;;;;;;5.63;2.85;;;;;;;;;;4994132;28;20038;-75
2023/09/20 08:02:38;;;;;;;6.25;3.10;;;;;;;;;;4994070;28;20026;-75
2023/09/20 08:05:05;;;;;;;7.78;3.25;;;;;;;;;;4994509;28;20085;-75
2023/09/20 08:07:31;;;;;;;6.85;3.00;;;;;;;;;;4993546;28;20025;-75
2023/09/20 08:09:57;;;;;;;5.60;2.90;;;;;;;;;;4993877;28;20113;-74
2023/09/20 08:12:23;;;;;;;7.57;3.58;;;;;;;;;;4994190;28;20465;-75
2023/09/20 08:14:51;;;;;;;9.52;3.70;;;;;;;;;;4993821;28;20431;-76
2023/09/20 08:20:05;;;;;;;7.22;3.33;;;;;;;;;;5012171;28;20061;-76
2023/09/20 09:00:59;;;;;;;6.50;3.53;;;;;;;;;;5012700;28;20033;-75
2023/09/20 09:03:26;;;;;;;5.28;2.83;;;;;;;;;;5012734;28;20080;-75
2023/09/20 09:05:53;;;;;;;7.32;3.35;;;;;;;;;;5012873;28;20018;-75
2023/09/20 09:08:19;;;;;;;5.38;2.97;;;;;;;;;;5011451;28;20022;-75
2023/09/20 09:10:45;;;;;;;4.95;3.30;;;;;;;;;;5012535;28;20593;-75
2023/09/20 09:13:11;;;;;;;4.72;2.72;;;;;;;;;;5013113;28;20026;-75
2023/09/20 09:15:38;;;;;;;4.93;2.78;;;;;;;;;;5012396;28;20038;-74
2023/09/20 09:18:04;;;;;;;5.30;2.78;;;;;;;;;;5012525;28;20033;-75
2023/09/20 09:20:33;;;;;;;4.85;2.90;;;;;;;;;;5015169;28;20057;-75
2023/09/20 09:22:59;;;;;;;5.50;2.55;;;;;;;;;;5016591;28;20131;-75
2023/09/20 09:25:30;;;;;;;7.85;2.70;;;;;;;;;;5016420;28;20460;-75
2023/09/20 09:27:56;;;;;;;8.23;3.28;;;;;;;;;;5016807;28;20033;-74
2023/09/20 09:30:23;;;;;;;4.03;2.35;;;;;;;;;;5016341;28;20026;-75
2023/09/20 09:32:50;;;;;;;5.13;2.63;;;;;;;;;;5016681;28;20033;-74
2023/09/20 09:35:18;;;;;;;5.68;2.42;;;;;;;;;;5016198;28;20039;-74
2023/09/20 09:37:44;;;;;;;4.93;2.83;;;;;;;;;;5016566;28;20018;-74
2023/09/20 09:40:11;;;;;;;4.50;2.67;;;;;;;;;;5014952;28;20022;-74
2023/09/20 09:42:39;;;;;;;4.47;2.60;;;;;;;;;;5016269;28;20034;-74
2023/09/20 09:45:06;;;;;;;4.57;2.65;;;;;;;;;;5016293;28;20029;-74
2023/09/20 09:47:35;;;;;;;5.13;2.67;;;;;;;;;;5015932;28;20580;-74
2023/09/20 09:50:03;;;;;;;4.07;2.75;;;;;;;;;;5015792;28;20033;-74
2023/09/20 09:52:29;;;;;;;6.10;3.13;;;;;;;;;;5016289;28;20028;-74
2023/09/20 09:54:56;;;;;;;5.93;3.03;;;;;;;;;;5015687;28;20022;-74
2023/09/20 09:57:23;;;;;;;3.83;2.95;;;;;;;;;;5015904;28;20427;-74
2023/09/20 09:59:49;;;;;;;5.50;3.13;;;;;;;;;;5015704;28;20022;-74
2023/09/20 10:02:19;;;;;;;3.78;3.08;;;;;;;;;;5015787;28;20034;-75
2023/09/20 10:04:56;;;;;;;3.97;3.15;;;;;;;;;;4998226;28;20028;-74
2023/09/20 10:07:24;;;;;;;5.28;3.17;;;;;;;;;;5015845;28;20532;-74
2023/09/20 10:09:52;;;;;;;4.78;3.33;;;;;;;;;;5015649;28;20029;-74
2023/09/20 10:12:19;;;;;;;4.68;3.70;;;;;;;;;;5015794;28;20519;-74
2023/09/20 10:14:45;;;;;;;7.80;3.67;;;;;;;;;;5015491;28;20053;-74
2023/09/20 10:17:15;;;;;;;5.72;3.95;;;;;;;;;;5015200;28;20119;-74
2023/09/20 10:19:41;;;;;;;3.65;3.33;;;;;;;;;;5015255;28;20060;-75
2023/09/20 10:22:10;;;;;;;9.35;3.85;;;;;;;;;;4997859;28;20026;-75
2023/09/20 10:25:03;;;;;;;4.97;3.45;;;;;;;;;;5015744;28;20018;-75
2023/09/20 10:27:31;;;;;;;5.78;3.65;;;;;;;;;;5011349;28;20034;-75
2023/09/20 10:30:10;;;;;;;4.53;3.33;;;;;;;;;;4997227;28;20361;-74
2023/09/20 10:32:36;;;;;;;4.60;3.22;;;;;;;;;;5015697;28;20447;-74
2023/09/20 10:35:27;;;;;;;6.82;3.22;;;;;;;;;;5015457;28;20029;-75
2023/09/20 10:38:08;;;;;;;4.72;3.28;;;;;;;;;;5015448;28;20101;-74
2023/09/20 10:40:50;;;;;;;4.85;3.55;;;;;;;;;;5014923;28;20030;-75
2023/09/20 10:43:18;;;;;;;5.47;3.30;;;;;;;;;;5015290;28;20046;-75
2023/09/20 10:45:50;;;;;;;6.32;3.50;;;;;;;;;;5015093;28;20057;-74
2023/09/20 10:48:23;;;;;;;5.22;3.15;;;;;;;;;;5015067;28;20108;-74
2023/09/20 10:50:49;;;;;;;4.38;3.33;;;;;;;;;;5014939;28;20026;-74
2023/09/20 10:53:18;;;;;;;7.60;3.60;;;;;;;;;;5014968;28;20022;-75
2023/09/20 10:55:45;;;;;;;5.72;3.90;;;;;;;;;;5014896;28;20480;-75
2023/09/20 10:58:14;;;;;;;6.03;3.70;;;;;;;;;;5014854;28;20025;-75
2023/09/20 11:00:40;;;;;;;5.82;3.55;;;;;;;;;;5015169;28;20062;-75
2023/09/20 11:03:09;;;;;;;4.75;3.42;;;;;;;;;;5014979;28;20684;-76
2023/09/20 11:05:36;;;;;;;7.00;3.77;;;;;;;;;;5014722;28;20093;-74
2023/09/20 11:08:06;;;;;;;7.30;3.78;;;;;;;;;;5014711;28;20301;-75
2023/09/20 11:10:33;;;;;;;4.72;2.97;;;;;;;;;;5014899;28;20017;-75
2023/09/20 11:13:01;;;;;;;4.28;3.17;;;;;;;;;;5014574;28;20030;-75
2023/09/20 11:15:27;;;;;;;3.88;3.45;;;;;;;;;;5014361;28;20494;-75
2023/09/20 11:17:53;;;;;;;5.47;2.88;;;;;;;;;;5010628;28;20072;-75
2023/09/20 11:20:19;;;;;;;4.55;3.30;;;;;;;;;;5003383;28;20050;-76
2023/09/20 11:22:45;;;;;;;4.10;3.20;;;;;;;;;;5010061;28;20065;-75
2023/09/20 11:25:11;;;;;;;5.43;3.40;;;;;;;;;;5012393;28;20033;-75
2023/09/20 11:27:38;;;;;;;5.03;3.53;;;;;;;;;;4994814;28;20022;-75
2023/09/20 11:30:08;;;;;;;6.90;3.65;;;;;;;;;;5000671;28;20076;-75
2023/09/20 11:32:34;;;;;;;5.78;3.58;;;;;;;;;;5010790;28;20096;-75
2023/09/20 11:35:01;;;;;;;3.75;2.58;;;;;;;;;;4993939;28;20485;-75
2023/09/20 11:37:32;;;;;;;7.28;3.38;;;;;;;;;;4993611;28;20019;-75
2023/09/20 11:40:00;;;;;;;4.38;3.47;;;;;;;;;;4994198;28;20041;-75
2023/09/20 11:42:36;;;;;;;5.75;3.58;;;;;;;;;;5011874;28;20029;-75
2023/09/20 11:45:03;;;;;;;7.97;3.72;;;;;;;;;;5013443;28;20026;-75
2023/09/20 11:47:34;;;;;;;5.85;3.85;;;;;;;;;;4994075;28;20076;-75
2023/09/20 11:50:00;;;;;;;6.00;3.75;;;;;;;;;;5011093;28;20037;-75
2023/09/20 11:52:27;;;;;;;7.13;3.95;;;;;;;;;;5011409;28;20029;-75
2023/09/20 11:54:58;;;;;;;6.75;4.20;;;;;;;;;;5012325;28;20048;-75
2023/09/20 11:57:25;;;;;;;6.43;4.50;;;;;;;;;;5011986;28;20034;-75
2023/09/20 11:59:51;;;;;;;7.90;4.22;;;;;;;;;;5012602;28;20030;-75
2023/09/20 12:02:17;;;;;;;5.30;3.88;;;;;;;;;;5011783;28;20025;-75
2023/09/20 12:04:43;;;;;;;7.32;4.20;;;;;;;;;;5012643;28;20104;-75
2023/09/20 12:07:09;;;;;;;6.38;4.18;;;;;;;;;;5008483;28;20028;-75
2023/09/20 12:09:36;;;;;;;9.38;4.88;;;;;;;;;;4992579;28;20034;-75
2023/09/20 12:12:06;;;;;;;6.85;4.20;;;;;;;;;;4999672;28;20054;-75
2023/09/20 12:14:37;;;;;;;6.82;4.05;;;;;;;;;;5010744;28;20022;-76
2023/09/20 12:17:04;;;;;;;6.00;3.97;;;;;;;;;;5003182;28;20469;-76
2023/09/20 12:19:30;;;;;;;5.75;3.50;;;;;;;;;;5005291;28;20550;-75
2023/09/20 12:21:56;;;;;;;6.88;3.90;;;;;;;;;;5007766;28;20102;-75
2023/09/20 12:24:22;;;;;;;5.65;4.05;;;;;;;;;;5013030;28;20084;-75
2023/09/20 12:26:48;;;;;;;6.28;3.85;;;;;;;;;;5012899;28;20491;-75
2023/09/20 12:29:15;;;;;;;7.25;4.20;;;;;;;;;;5012925;28;20076;-75
2023/09/20 12:31:41;;;;;;;6.38;3.50;;;;;;;;;;5012959;28;20369;-75
2023/09/20 12:34:07;;;;;;;4.63;3.67;;;;;;;;;;5012662;28;20036;-75
2023/09/20 12:36:33;;;;;;;4.05;3.00;;;;;;;;;;5012653;28;20037;-75
2023/09/20 12:39:01;;;;;;;6.45;3.63;;;;;;;;;;5013019;28;20516;-75
2023/09/20 12:41:27;;;;;;;5.25;3.38;;;;;;;;;;5012659;28;20022;-75
2023/09/20 12:43:53;;;;;;;5.97;2.88;;;;;;;;;;5012319;28;20022;-75
2023/09/20 12:46:21;;;;;;;6.68;3.00;;;;;;;;;;5012645;28;20030;-75
2023/09/20 12:48:48;;;;;;;7.68;3.03;;;;;;;;;;5013056;28;20029;-75
2023/09/20 12:51:15;;;;;;;4.57;3.10;;;;;;;;;;5013063;28;20073;-76
2023/09/20 12:53:43;;;;;;;6.95;3.42;;;;;;;;;;5012639;28;20025;-75
2023/09/20 12:56:11;;;;;;;5.55;3.50;;;;;;;;;;4999700;28;20116;-75
2023/09/20 12:58:38;;;;;;;8.88;3.25;;;;;;;;;;5012848;28;20053;-75
2023/09/20 13:01:05;;;;;;;6.07;3.03;;;;;;;;;;5012763;28;21318;-75
2023/09/20 13:03:31;;;;;;;6.85;3.13;;;;;;;;;;5012772;28;20026;-76
2023/09/20 13:05:58;;;;;;;4.90;2.90;;;;;;;;;;5012556;28;20039;-75
2023/09/20 13:08:24;;;;;;;5.13;3.13;;;;;;;;;;5012425;28;20460;-76
2023/09/20 13:10:51;;;;;;;4.00;2.92;;;;;;;;;;5012766;28;20041;-76
2023/09/20 13:13:17;;;;;;;5.68;3.28;;;;;;;;;;5012387;28;20022;-76
2023/09/20 13:15:44;;;;;;;9.73;4.55;;;;;;;;;;5012493;28;20496;-75
2023/09/20 13:18:12;;;;;;;5.10;3.10;;;;;;;;;;5010246;28;20022;-76
2023/09/20 13:20:41;;;;;;;5.22;3.20;;;;;;;;;;4998520;28;20042;-75
2023/09/20 13:23:07;;;;;;;6.90;3.40;;;;;;;;;;5012091;28;20041;-76
2023/09/20 13:25:33;;;;;;;5.30;3.10;;;;;;;;;;4999607;28;20022;-76
2023/09/20 13:27:59;;;;;;;6.07;3.08;;;;;;;;;;5012304;28;20026;-76
2023/09/20 13:30:26;;;;;;;6.30;3.30;;;;;;;;;;5012261;28;20030;-75
2023/09/20 13:32:52;;;;;;;5.95;3.58;;;;;;;;;;5011776;28;20014;-75
2023/09/20 13:35:18;;;;;;;3.95;3.55;;;;;;;;;;5009378;28;20420;-75
2023/09/20 13:37:45;;;;;;;7.00;2.80;;;;;;;;;;4998158;28;20049;-75
2023/09/20 13:40:18;;;;;;;6.10;3.20;;;;;;;;;;5012096;28;20060;-76
2023/09/20 13:42:44;;;;;;;4.30;3.20;;;;;;;;;;4992565;28;20017;-76
2023/09/20 13:45:15;;;;;;;3.47;3.03;;;;;;;;;;4998636;28;20092;-75
2023/09/20 13:47:41;;;;;;;6.47;3.45;;;;;;;;;;5012199;28;20045;-75
2023/09/20 13:50:16;;;;;;;5.40;3.58;;;;;;;;;;5012248;28;20018;-76
2023/09/20 13:52:42;;;;;;;5.05;3.13;;;;;;;;;;5012227;28;20014;-75
2023/09/20 13:55:13;;;;;;;6.20;3.33;;;;;;;;;;5011823;28;20361;-75
2023/09/20 13:57:40;;;;;;;4.80;3.10;;;;;;;;;;5000111;28;20464;-76
2023/09/20 14:00:12;;;;;;;6.18;3.42;;;;;;;;;;5012046;28;20026;-76
2023/09/20 14:02:40;;;;;;;5.22;3.25;;;;;;;;;;5001129;28;20026;-76
2023/09/20 14:05:15;;;;;;;5.70;3.83;;;;;;;;;;5012511;28;20360;-76
2023/09/20 14:07:43;;;;;;;6.97;3.20;;;;;;;;;;5015881;28;20032;-76
2023/09/20 14:10:09;;;;;;;7.30;4.07;;;;;;;;;;5015481;28;20064;-76
2023/09/20 14:12:37;;;;;;;8.55;3.92;;;;;;;;;;5008254;28;20457;-76
2023/09/20 14:15:03;;;;;;;7.53;3.40;;;;;;;;;;4991752;28;20342;-76
2023/09/20 14:17:30;;;;;;;6.43;3.35;;;;;;;;;;4998136;28;20393;-76
2023/09/20 14:19:56;;;;;;;5.75;3.40;;;;;;;;;;5012358;28;20045;-76
2023/09/20 14:22:23;;;;;;;6.63;3.20;;;;;;;;;;5015223;28;20034;-76
2023/09/20 14:24:49;;;;;;;5.68;3.33;;;;;;;;;;4997556;28;20026;-76
2023/09/20 14:27:15;;;;;;;4.05;3.15;;;;;;;;;;5010106;28;20042;-74
2023/09/20 14:29:41;;;;;;;7.50;3.20;;;;;;;;;;5005554;28;20579;-74
2023/09/20 14:32:09;;;;;;;5.50;3.05;;;;;;;;;;5008126;28;20030;-74
2023/09/20 14:34:35;;;;;;;4.47;3.00;;;;;;;;;;5015099;28;20522;-74
2023/09/20 14:37:01;;;;;;;5.75;3.05;;;;;;;;;;5014326;28;20089;-74
2023/09/20 14:39:27;;;;;;;4.65;2.85;;;;;;;;;;5014912;28;20475;-75
2023/09/20 14:41:53;;;;;;;6.03;3.20;;;;;;;;;;5014846;28;20653;-75
2023/09/20 14:44:19;;;;;;;5.18;3.00;;;;;;;;;;5011396;28;20535;-74
2023/09/20 14:46:45;;;;;;;5.68;3.08;;;;;;;;;;5011991;28;20034;-74
2023/09/20 14:49:11;;;;;;;6.30;2.85;;;;;;;;;;5010868;28;20498;-74
2023/09/20 14:51:38;;;;;;;5.95;2.92;;;;;;;;;;5000717;28;20026;-74
2023/09/20 14:54:04;;;;;;;5.78;3.30;;;;;;;;;;5012155;28;20508;-74
2023/09/20 14:56:31;;;;;;;4.22;2.97;;;;;;;;;;5005911;28;20051;-74
2023/09/20 14:58:57;;;;;;;5.75;3.42;;;;;;;;;;5002056;28;20373;-74
2023/09/20 15:01:23;;;;;;;5.70;3.20;;;;;;;;;;5014672;28;20073;-74
2023/09/20 15:03:49;;;;;;;4.43;2.90;;;;;;;;;;5014519;28;20034;-75
2023/09/20 15:06:19;;;;;;;4.53;2.50;;;;;;;;;;4995171;28;20030;-75
2023/09/20 15:08:46;;;;;;;3.83;3.10;;;;;;;;;;5013037;28;20057;-75
2023/09/20 15:11:12;;;;;;;5.43;3.17;;;;;;;;;;5001016;28;20078;-75
2023/09/20 15:13:39;;;;;;;4.07;2.90;;;;;;;;;;5003675;28;20022;-74
2023/09/20 15:16:10;;;;;;;4.07;2.97;;;;;;;;;;5011182;28;20122;-75
2023/09/20 15:18:37;;;;;;;4.72;3.10;;;;;;;;;;5005803;28;20018;-75
2023/09/20 15:21:07;;;;;;;4.85;2.78;;;;;;;;;;5013766;28;20060;-75